createdAt,value
2022-09-03T00:00:28.406Z,16.87
2022-09-03T00:01:28.439Z,16.89
2022-09-03T00:02:28.461Z,16.75
2022-09-03T00:03:28.344Z,16.79
2022-09-03T00:04:28.333Z,16.78
2022-09-03T00:05:28.319Z,16.74
2022-09-03T00:06:28.279Z,16.74
2022-09-03T00:07:28.276Z,16.71
2022-09-03T00:08:28.319Z,16.79
2022-09-03T00:09:28.201Z,16.74
2022-09-03T00:10:28.192Z,16.78
2022-09-03T00:11:28.186Z,16.81
2022-09-03T00:12:28.167Z,16.78
2022-09-03T00:13:28.125Z,16.76
2022-09-03T00:14:28.109Z,16.86
2022-09-03T00:15:28.102Z,16.79
2022-09-03T00:16:28.197Z,16.79
2022-09-03T00:17:28.047Z,16.90
2022-09-03T00:18:28.035Z,16.87
2022-09-03T00:19:28.030Z,16.83
2022-09-03T00:20:28.018Z,16.84
2022-09-03T00:21:27.966Z,16.90
2022-09-03T00:22:27.957Z,16.96
2022-09-03T00:23:27.955Z,16.91
2022-09-03T00:24:27.892Z,16.94
2022-09-03T00:25:27.885Z,17.01
2022-09-03T00:26:27.874Z,17.01
2022-09-03T00:27:28.691Z,16.89
2022-09-03T00:28:27.804Z,16.94
2022-09-03T00:29:27.816Z,16.94
2022-09-03T00:30:27.793Z,17.01
2022-09-03T00:31:28.684Z,16.94
2022-09-03T00:32:27.729Z,17.01
2022-09-03T00:33:27.737Z,17.04
2022-09-03T00:34:27.718Z,17.12
2022-09-03T00:35:27.659Z,17.12
2022-09-03T00:36:27.651Z,17.06
2022-09-03T00:37:27.645Z,17.08
2022-09-03T00:38:27.635Z,17.14
2022-09-03T00:39:27.701Z,17.11
2022-09-03T00:40:27.578Z,17.09
2022-09-03T00:41:27.572Z,17.06
2022-09-03T00:42:27.563Z,17.11
2022-09-03T00:43:27.491Z,17.04
2022-09-03T00:44:27.505Z,17.11
2022-09-03T00:45:27.485Z,17.08
2022-09-03T00:46:27.503Z,17.11
2022-09-03T00:47:27.410Z,17.08
2022-09-03T00:48:27.953Z,17.20
2022-09-03T00:49:27.404Z,17.19
2022-09-03T00:50:27.407Z,17.19
2022-09-03T00:51:27.329Z,17.20
2022-09-03T00:52:28.817Z,17.16
2022-09-03T00:53:27.319Z,17.22
2022-09-03T00:54:27.337Z,17.20
2022-09-03T00:55:27.253Z,17.26
2022-09-03T00:56:27.243Z,17.23
2022-09-03T00:57:27.259Z,17.20
2022-09-03T00:58:27.193Z,17.16
2022-09-03T00:59:27.198Z,17.22
2022-09-03T01:00:27.178Z,17.12
2022-09-03T01:01:27.264Z,17.24
2022-09-03T01:02:27.194Z,17.15
2022-09-03T01:03:27.103Z,17.22
2022-09-03T01:04:27.093Z,17.15
2022-09-03T01:05:27.063Z,17.16
2022-09-03T01:06:27.040Z,17.16
2022-09-03T01:07:27.028Z,17.24
2022-09-03T01:08:27.021Z,17.22
2022-09-03T01:09:26.954Z,17.14
2022-09-03T01:10:26.962Z,17.16
2022-09-03T01:11:26.947Z,17.16
2022-09-03T01:12:26.943Z,17.19
2022-09-03T01:13:26.882Z,17.15
2022-09-03T01:14:26.890Z,17.20
2022-09-03T01:15:26.867Z,17.12
2022-09-03T01:16:26.864Z,17.15
2022-09-03T01:17:26.811Z,17.14
2022-09-03T01:18:26.814Z,17.11
2022-09-03T01:19:26.805Z,17.19
2022-09-03T01:20:26.828Z,17.16
2022-09-03T01:21:26.715Z,17.11
2022-09-03T01:22:26.698Z,17.08
2022-09-03T01:23:27.654Z,17.09
2022-09-03T01:24:26.654Z,17.04
2022-09-03T01:25:26.658Z,17.04
2022-09-03T01:26:26.628Z,17.04
2022-09-03T01:27:26.636Z,17.04
2022-09-03T01:28:26.571Z,17.04
2022-09-03T01:29:26.568Z,17.01
2022-09-03T01:30:26.541Z,17.04
2022-09-03T01:31:26.543Z,16.99
2022-09-03T01:32:26.506Z,16.97
2022-09-03T01:33:26.485Z,17.01
2022-09-03T01:34:26.479Z,17.01
2022-09-03T01:35:27.171Z,17.02
2022-09-03T01:36:26.406Z,17.02
2022-09-03T01:37:26.393Z,17.04
2022-09-03T01:38:26.419Z,17.08
2022-09-03T01:39:26.391Z,16.99
2022-09-03T01:40:26.332Z,17.06
2022-09-03T01:41:26.314Z,16.93
2022-09-03T01:42:26.283Z,17.04
2022-09-03T01:43:26.250Z,17.04
2022-09-03T01:44:26.255Z,17.05
2022-09-03T01:45:26.228Z,17.04
2022-09-03T01:46:26.205Z,16.93
2022-09-03T01:47:26.195Z,16.97
2022-09-03T01:48:26.174Z,17.01
2022-09-03T01:49:26.142Z,17.01
2022-09-03T01:50:26.117Z,16.93
2022-09-03T01:51:26.124Z,16.96
2022-09-03T01:52:26.105Z,16.99
2022-09-03T01:53:26.054Z,16.90
2022-09-03T01:54:26.017Z,16.83
2022-09-03T01:55:26.004Z,16.89
2022-09-03T01:56:26.012Z,16.87
2022-09-03T01:57:35.335Z,16.83
2022-09-03T01:58:25.938Z,16.83
2022-09-03T01:59:25.955Z,16.78
2022-09-03T02:00:25.896Z,16.76
2022-09-03T02:01:25.941Z,16.72
2022-09-03T02:02:25.994Z,16.64
2022-09-03T02:03:25.856Z,16.64
2022-09-03T02:04:26.718Z,16.64
2022-09-03T02:05:25.815Z,16.74
2022-09-03T02:06:25.770Z,16.64
2022-09-03T02:07:25.782Z,16.66
2022-09-03T02:08:25.818Z,16.68
2022-09-03T02:09:29.279Z,16.60
2022-09-03T02:10:25.698Z,16.66
2022-09-03T02:11:25.657Z,16.53
2022-09-03T02:12:25.719Z,16.58
2022-09-03T02:13:25.627Z,16.56
2022-09-03T02:14:25.615Z,16.53
2022-09-03T02:15:25.620Z,16.56
2022-09-03T02:16:25.557Z,16.50
2022-09-03T02:17:25.563Z,16.49
2022-09-03T02:18:25.797Z,16.43
2022-09-03T02:19:25.531Z,16.49
2022-09-03T02:20:25.572Z,16.46
2022-09-03T02:21:26.183Z,16.50
2022-09-03T02:22:25.427Z,16.46
2022-09-03T02:23:28.246Z,16.41
2022-09-03T02:24:25.401Z,16.42
2022-09-03T02:25:25.384Z,16.43
2022-09-03T02:26:25.355Z,16.42
2022-09-03T02:27:25.343Z,16.41
2022-09-03T02:28:25.321Z,16.39
2022-09-03T02:29:25.328Z,16.42
2022-09-03T02:30:25.263Z,16.42
2022-09-03T02:31:25.311Z,16.38
2022-09-03T02:32:25.235Z,16.39
2022-09-03T02:33:25.243Z,16.35
2022-09-03T02:34:25.186Z,16.35
2022-09-03T02:35:25.181Z,16.24
2022-09-03T02:36:27.442Z,16.29
2022-09-03T02:37:25.157Z,16.32
2022-09-03T02:38:25.233Z,16.33
2022-09-03T02:39:25.163Z,16.31
2022-09-03T02:40:25.085Z,16.29
2022-09-03T02:41:25.027Z,16.16
2022-09-03T02:42:25.011Z,16.12
2022-09-03T02:43:26.066Z,16.13
2022-09-03T02:44:24.962Z,16.17
2022-09-03T02:45:24.942Z,16.20
2022-09-03T02:46:24.966Z,16.08
2022-09-03T02:47:25.729Z,16.12
2022-09-03T02:48:25.061Z,16.09
2022-09-03T02:49:24.875Z,16.10
2022-09-03T02:50:24.858Z,16.05
2022-09-03T02:51:24.843Z,16.20
2022-09-03T02:52:24.814Z,16.04
2022-09-03T02:53:24.778Z,16.09
2022-09-03T02:54:24.769Z,16.13
2022-09-03T02:55:24.769Z,16.08
2022-09-03T02:56:24.718Z,16.15
2022-09-03T02:57:27.612Z,16.16
2022-09-03T02:58:24.873Z,16.13
2022-09-03T02:59:24.742Z,16.13
2022-09-03T03:00:24.630Z,16.13
2022-09-03T03:01:24.731Z,16.15
2022-09-03T03:02:24.648Z,16.17
2022-09-03T03:03:24.566Z,16.23
2022-09-03T03:04:24.545Z,16.16
2022-09-03T03:05:24.530Z,16.15
2022-09-03T03:06:24.518Z,16.16
2022-09-03T03:07:24.487Z,16.20
2022-09-03T03:08:24.762Z,16.12
2022-09-03T03:09:24.549Z,16.12
2022-09-03T03:10:25.207Z,16.13
2022-09-03T03:11:24.393Z,16.13
2022-09-03T03:12:24.408Z,16.16
2022-09-03T03:13:24.362Z,16.12
2022-09-03T03:14:24.375Z,16.08
2022-09-03T03:15:24.322Z,16.09
2022-09-03T03:16:24.378Z,16.09
2022-09-03T03:17:25.230Z,16.08
2022-09-03T03:18:24.397Z,16.08
2022-09-03T03:19:24.234Z,16.08
2022-09-03T03:20:24.241Z,16.00
2022-09-03T03:21:24.700Z,16.08
2022-09-03T03:22:24.162Z,16.00
2022-09-03T03:23:24.136Z,15.97
2022-09-03T03:24:24.195Z,16.12
2022-09-03T03:25:24.092Z,15.95
2022-09-03T03:26:24.078Z,16.09
2022-09-03T03:27:24.063Z,16.10
2022-09-03T03:28:24.195Z,16.12
2022-09-03T03:29:24.003Z,16.08
2022-09-03T03:30:24.017Z,16.08
2022-09-03T03:31:23.991Z,16.01
2022-09-03T03:32:23.944Z,16.09
2022-09-03T03:33:23.917Z,16.00
2022-09-03T03:34:23.900Z,16.04
2022-09-03T03:35:23.903Z,16.05
2022-09-03T03:36:23.886Z,16.01
2022-09-03T03:37:23.848Z,16.02
2022-09-03T03:38:23.970Z,16.01
2022-09-03T03:39:26.763Z,15.97
2022-09-03T03:40:23.794Z,16.04
2022-09-03T03:41:23.763Z,16.08
2022-09-03T03:42:23.743Z,16.02
2022-09-03T03:43:23.726Z,16.01
2022-09-03T03:44:23.683Z,16.01
2022-09-03T03:45:23.682Z,16.02
2022-09-03T03:46:23.767Z,16.02
2022-09-03T03:47:23.618Z,16.00
2022-09-03T03:48:23.698Z,16.00
2022-09-03T03:49:23.601Z,15.90
2022-09-03T03:50:24.233Z,16.10
2022-09-03T03:51:23.539Z,16.02
2022-09-03T03:52:23.544Z,16.08
2022-09-03T03:53:23.484Z,16.01
2022-09-03T03:54:23.480Z,16.02
2022-09-03T03:55:23.446Z,16.02
2022-09-03T03:56:23.440Z,16.04
2022-09-03T03:57:23.406Z,16.05
2022-09-03T03:58:23.548Z,16.09
2022-09-03T03:59:23.375Z,16.09
2022-09-03T04:00:24.790Z,16.09
2022-09-03T04:01:23.361Z,16.16
2022-09-03T04:02:23.373Z,16.13
2022-09-03T04:03:23.294Z,16.12
2022-09-03T04:04:23.253Z,16.17
2022-09-03T04:05:24.097Z,16.13
2022-09-03T04:06:23.222Z,16.15
2022-09-03T04:07:23.198Z,16.16
2022-09-03T04:08:23.859Z,16.10
2022-09-03T04:09:23.149Z,16.17
2022-09-03T04:10:23.213Z,16.10
2022-09-03T04:11:23.117Z,16.17
2022-09-03T04:12:23.115Z,16.15
2022-09-03T04:13:23.061Z,16.15
2022-09-03T04:14:23.059Z,16.20
2022-09-03T04:15:23.016Z,16.20
2022-09-03T04:16:23.189Z,16.17
2022-09-03T04:17:25.255Z,16.28
2022-09-03T04:18:22.975Z,16.31
2022-09-03T04:19:22.942Z,16.13
2022-09-03T04:20:22.919Z,16.21
2022-09-03T04:21:22.915Z,16.21
2022-09-03T04:22:22.903Z,16.28
2022-09-03T04:23:22.905Z,16.31
2022-09-03T04:24:22.832Z,16.28
2022-09-03T04:25:22.856Z,16.28
2022-09-03T04:26:22.811Z,16.33
2022-09-03T04:27:22.759Z,16.39
2022-09-03T04:28:24.472Z,16.33
2022-09-03T04:29:22.756Z,16.43
2022-09-03T04:30:22.728Z,16.46
2022-09-03T04:31:22.690Z,16.39
2022-09-03T04:32:22.680Z,16.43
2022-09-03T04:33:22.681Z,16.38
2022-09-03T04:34:23.176Z,16.46
2022-09-03T04:35:22.590Z,16.49
2022-09-03T04:36:22.595Z,16.43
2022-09-03T04:37:22.585Z,16.38
2022-09-03T04:38:22.613Z,16.41
2022-09-03T04:39:22.586Z,16.43
2022-09-03T04:40:22.525Z,16.38
2022-09-03T04:41:22.515Z,16.41
2022-09-03T04:42:22.442Z,16.41
2022-09-03T04:43:22.438Z,16.41
2022-09-03T04:44:22.430Z,16.49
2022-09-03T04:45:22.375Z,16.42
2022-09-03T04:46:22.379Z,16.47
2022-09-03T04:47:22.364Z,16.51
2022-09-03T04:48:22.312Z,16.50
2022-09-03T04:49:22.303Z,16.53
2022-09-03T04:50:22.279Z,16.53
2022-09-03T04:51:22.276Z,16.54
2022-09-03T04:52:22.772Z,16.58
2022-09-03T04:53:22.204Z,16.65
2022-09-03T04:54:22.199Z,16.68
2022-09-03T04:55:22.198Z,16.66
2022-09-03T04:56:22.146Z,16.61
2022-09-03T04:57:22.122Z,16.74
2022-09-03T04:58:22.163Z,16.78
2022-09-03T04:59:22.079Z,16.74
2022-09-03T05:00:22.089Z,16.79
2022-09-03T05:01:22.100Z,16.84
2022-09-03T05:02:22.078Z,16.83
2022-09-03T05:03:22.782Z,16.91
2022-09-03T05:04:21.975Z,16.86
2022-09-03T05:05:21.983Z,16.97
2022-09-03T05:06:21.951Z,17.02
2022-09-03T05:07:21.932Z,16.90
2022-09-03T05:08:21.933Z,16.93
2022-09-03T05:09:21.895Z,16.96
2022-09-03T05:10:21.851Z,16.99
2022-09-03T05:11:21.853Z,16.99
2022-09-03T05:12:21.817Z,17.02
2022-09-03T05:13:21.820Z,17.06
2022-09-03T05:14:21.772Z,17.15
2022-09-03T05:15:21.780Z,17.16
2022-09-03T05:16:21.787Z,17.19
2022-09-03T05:17:21.721Z,17.19
2022-09-03T05:18:21.707Z,17.27
2022-09-03T05:19:21.663Z,17.30
2022-09-03T05:20:21.667Z,17.31
2022-09-03T05:21:21.659Z,17.30
2022-09-03T05:22:21.611Z,17.39
2022-09-03T05:23:21.584Z,17.36
2022-09-03T05:24:21.589Z,17.34
2022-09-03T05:25:21.540Z,17.45
2022-09-03T05:26:21.519Z,17.38
2022-09-03T05:27:21.504Z,17.44
2022-09-03T05:28:21.513Z,17.57
2022-09-03T05:29:21.460Z,17.57
2022-09-03T05:30:21.440Z,17.57
2022-09-03T05:31:21.492Z,17.72
2022-09-03T05:32:21.424Z,17.78
2022-09-03T05:33:22.268Z,17.76
2022-09-03T05:34:21.361Z,17.80
2022-09-03T05:35:25.824Z,17.80
2022-09-03T05:36:21.345Z,17.87
2022-09-03T05:37:21.308Z,17.87
2022-09-03T05:38:21.370Z,17.82
2022-09-03T05:39:21.329Z,17.97
2022-09-03T05:40:21.241Z,17.98
2022-09-03T05:41:21.288Z,17.97
2022-09-03T05:42:21.218Z,18.03
2022-09-03T05:43:21.212Z,18.07
2022-09-03T05:44:21.157Z,17.94
2022-09-03T05:45:21.172Z,18.16
2022-09-03T05:46:21.125Z,18.00
2022-09-03T05:47:21.127Z,18.04
2022-09-03T05:48:21.160Z,18.03
2022-09-03T05:49:21.055Z,18.03
2022-09-03T05:50:21.047Z,18.08
2022-09-03T05:51:21.032Z,18.10
2022-09-03T05:52:21.044Z,18.15
2022-09-03T05:53:20.973Z,18.16
2022-09-03T05:54:20.958Z,18.11
2022-09-03T05:55:20.962Z,18.18
2022-09-03T05:56:20.927Z,18.26
2022-09-03T05:57:20.902Z,18.29
2022-09-03T05:58:20.896Z,18.29
2022-09-03T05:59:20.861Z,18.26
2022-09-03T06:00:20.851Z,18.19
2022-09-03T06:01:20.818Z,18.26
2022-09-03T06:02:20.934Z,18.31
2022-09-03T06:03:20.940Z,18.26
2022-09-03T06:04:20.750Z,18.33
2022-09-03T06:05:20.735Z,18.37
2022-09-03T06:06:20.745Z,18.29
2022-09-03T06:07:20.698Z,18.26
2022-09-03T06:08:20.670Z,18.33
2022-09-03T06:09:20.661Z,18.25
2022-09-03T06:10:25.428Z,18.28
2022-09-03T06:11:21.309Z,18.31
2022-09-03T06:12:20.594Z,18.34
2022-09-03T06:13:20.584Z,18.33
2022-09-03T06:14:20.566Z,18.35
2022-09-03T06:15:21.293Z,18.34
2022-09-03T06:16:26.693Z,18.38
2022-09-03T06:17:20.595Z,18.41
2022-09-03T06:18:20.496Z,18.44
2022-09-03T06:19:20.472Z,18.44
2022-09-03T06:20:20.434Z,18.55
2022-09-03T06:21:20.437Z,18.52
2022-09-03T06:22:20.423Z,18.56
2022-09-03T06:23:20.374Z,18.53
2022-09-03T06:24:20.404Z,18.53
2022-09-03T06:25:20.362Z,18.62
2022-09-03T06:26:20.313Z,18.60
2022-09-03T06:27:20.296Z,18.56
2022-09-03T06:28:23.408Z,18.71
2022-09-03T06:29:20.282Z,18.74
2022-09-03T06:30:20.242Z,18.65
2022-09-03T06:31:20.277Z,18.73
2022-09-03T06:32:20.208Z,18.74
2022-09-03T06:33:20.253Z,18.77
2022-09-03T06:34:20.223Z,18.77
2022-09-03T06:35:20.205Z,18.81
2022-09-03T06:36:20.227Z,18.81
2022-09-03T06:37:20.237Z,18.80
2022-09-03T06:38:20.790Z,18.93
2022-09-03T06:39:20.201Z,18.90
2022-09-03T06:40:20.049Z,18.95
2022-09-03T06:41:20.041Z,19.04
2022-09-03T06:42:20.781Z,19.08
2022-09-03T06:43:19.983Z,19.16
2022-09-03T06:44:19.976Z,19.18
2022-09-03T06:45:19.971Z,19.27
2022-09-03T06:46:20.792Z,19.26
2022-09-03T06:47:19.905Z,19.26
2022-09-03T06:48:19.948Z,19.34
2022-09-03T06:49:19.897Z,19.36
2022-09-03T06:50:20.828Z,19.36
2022-09-03T06:51:19.827Z,19.37
2022-09-03T06:52:19.825Z,19.47
2022-09-03T06:53:19.832Z,19.54
2022-09-03T06:54:19.820Z,19.49
2022-09-03T06:55:19.748Z,19.58
2022-09-03T06:56:19.751Z,19.82
2022-09-03T06:57:19.748Z,19.82
2022-09-03T06:58:19.799Z,19.85
2022-09-03T06:59:19.674Z,20.00
2022-09-03T07:00:19.672Z,20.19
2022-09-03T07:01:19.780Z,20.36
2022-09-03T07:02:19.742Z,20.40
2022-09-03T07:03:19.598Z,20.48
2022-09-03T07:04:20.396Z,20.55
2022-09-03T07:05:19.637Z,20.65
2022-09-03T07:06:19.584Z,20.66
2022-09-03T07:07:19.524Z,20.66
2022-09-03T07:08:19.562Z,20.67
2022-09-03T07:09:19.527Z,20.75
2022-09-03T07:10:19.522Z,20.92
2022-09-03T07:11:19.451Z,20.96
2022-09-03T07:12:19.445Z,21.06
2022-09-03T07:13:19.453Z,21.07
2022-09-03T07:14:19.508Z,21.07
2022-09-03T07:15:19.381Z,21.24
2022-09-03T07:16:19.424Z,21.29
2022-09-03T07:17:19.355Z,21.37
2022-09-03T07:18:20.349Z,21.54
2022-09-03T07:19:19.381Z,21.55
2022-09-03T07:20:19.304Z,21.75
2022-09-03T07:21:19.304Z,21.75
2022-09-03T07:22:19.314Z,21.91
2022-09-03T07:23:19.232Z,21.95
2022-09-03T07:24:19.227Z,22.06
2022-09-03T07:25:19.222Z,22.10
2022-09-03T07:26:19.227Z,22.20
2022-09-03T07:27:19.168Z,22.35
2022-09-03T07:28:19.211Z,22.36
2022-09-03T07:29:19.155Z,22.50
2022-09-03T07:30:19.145Z,22.54
2022-09-03T07:31:19.151Z,22.47
2022-09-03T07:32:19.077Z,22.69
2022-09-03T07:33:19.094Z,22.63
2022-09-03T07:34:19.064Z,22.62
2022-09-03T07:35:19.061Z,22.76
2022-09-03T07:36:19.005Z,22.84
2022-09-03T07:37:19.004Z,22.88
2022-09-03T07:38:18.983Z,22.94
2022-09-03T07:39:19.053Z,23.05
2022-09-03T07:40:18.946Z,23.15
2022-09-03T07:41:28.493Z,23.17
2022-09-03T07:42:18.935Z,23.27
2022-09-03T07:43:18.887Z,23.28
2022-09-03T07:44:18.913Z,23.37
2022-09-03T07:45:18.863Z,23.36
2022-09-03T07:46:18.918Z,23.41
2022-09-03T07:47:19.916Z,23.56
2022-09-03T07:48:19.400Z,23.59
2022-09-03T07:49:18.789Z,23.59
2022-09-03T07:50:18.796Z,23.58
2022-09-03T07:51:18.764Z,23.71
2022-09-03T07:52:18.784Z,23.71
2022-09-03T07:53:18.721Z,23.78
2022-09-03T07:54:18.733Z,23.83
2022-09-03T07:55:18.715Z,23.84
2022-09-03T07:56:18.729Z,23.87
2022-09-03T07:57:19.322Z,23.84
2022-09-03T07:58:18.715Z,23.95
2022-09-03T07:59:18.639Z,24.02
2022-09-03T08:00:18.629Z,24.05
2022-09-03T08:01:18.732Z,24.02
2022-09-03T08:02:18.572Z,24.11
2022-09-03T08:03:18.578Z,24.06
2022-09-03T08:04:18.559Z,24.17
2022-09-03T08:05:18.569Z,24.21
2022-09-03T08:06:18.515Z,24.29
2022-09-03T08:07:18.503Z,24.36
2022-09-03T08:08:18.494Z,24.30
2022-09-03T08:09:18.498Z,24.43
2022-09-03T08:10:18.474Z,24.48
2022-09-03T08:11:18.431Z,24.42
2022-09-03T08:12:18.415Z,24.40
2022-09-03T08:13:18.406Z,24.47
2022-09-03T08:14:18.377Z,24.40
2022-09-03T08:15:18.368Z,24.39
2022-09-03T08:16:18.397Z,24.43
2022-09-03T08:17:18.338Z,24.45
2022-09-03T08:18:18.334Z,24.54
2022-09-03T08:19:18.492Z,24.45
2022-09-03T08:20:18.284Z,24.57
2022-09-03T08:21:18.276Z,24.48
2022-09-03T08:22:18.262Z,24.60
2022-09-03T08:23:18.242Z,24.60
2022-09-03T08:24:18.231Z,24.43
2022-09-03T08:25:18.219Z,24.43
2022-09-03T08:26:18.186Z,24.45
2022-09-03T08:27:18.198Z,24.38
2022-09-03T08:28:18.841Z,24.42
2022-09-03T08:29:18.142Z,24.42
2022-09-03T08:30:18.130Z,24.39
2022-09-03T08:31:18.245Z,24.42
2022-09-03T08:32:18.083Z,24.45
2022-09-03T08:33:18.072Z,24.45
2022-09-03T08:34:18.230Z,24.48
2022-09-03T08:35:18.044Z,24.47
2022-09-03T08:36:18.070Z,24.36
2022-09-03T08:37:18.018Z,24.47
2022-09-03T08:38:18.005Z,24.42
2022-09-03T08:39:18.014Z,24.54
2022-09-03T08:40:18.005Z,24.60
2022-09-03T08:41:17.942Z,24.57
2022-09-03T08:42:18.011Z,24.60
2022-09-03T08:43:17.908Z,24.61
2022-09-03T08:44:17.900Z,24.68
2022-09-03T08:45:17.905Z,24.80
2022-09-03T08:46:17.946Z,24.73
2022-09-03T08:47:17.847Z,24.74
2022-09-03T08:48:17.851Z,24.77
2022-09-03T08:49:18.363Z,24.91
2022-09-03T08:50:17.802Z,24.93
2022-09-03T08:51:17.787Z,24.93
2022-09-03T08:52:17.788Z,24.93
2022-09-03T08:53:17.759Z,25.08
2022-09-03T08:54:17.762Z,25.17
2022-09-03T08:55:17.770Z,25.10
2022-09-03T08:56:17.797Z,25.11
2022-09-03T08:57:17.700Z,25.07
2022-09-03T08:58:17.683Z,25.17
2022-09-03T08:59:17.656Z,25.06
2022-09-03T09:00:17.634Z,25.04
2022-09-03T09:01:17.669Z,25.01
2022-09-03T09:02:17.740Z,25.01
2022-09-03T09:03:17.628Z,25.08
2022-09-03T09:04:17.588Z,25.17
2022-09-03T09:05:17.579Z,25.21
2022-09-03T09:06:17.556Z,25.11
2022-09-03T09:07:17.539Z,25.06
2022-09-03T09:08:17.571Z,25.11
2022-09-03T09:09:17.500Z,25.14
2022-09-03T09:10:17.498Z,25.06
2022-09-03T09:11:17.467Z,25.06
2022-09-03T09:12:17.440Z,25.14
2022-09-03T09:13:17.492Z,25.18
2022-09-03T09:14:17.430Z,25.18
2022-09-03T09:15:17.406Z,25.23
2022-09-03T09:16:17.512Z,25.22
2022-09-03T09:17:17.364Z,25.14
2022-09-03T09:18:17.347Z,25.03
2022-09-03T09:19:17.357Z,24.93
2022-09-03T09:20:17.346Z,24.93
2022-09-03T09:21:21.941Z,24.84
2022-09-03T09:22:17.336Z,24.86
2022-09-03T09:23:17.306Z,24.88
2022-09-03T09:24:17.266Z,24.95
2022-09-03T09:25:17.258Z,24.96
2022-09-03T09:26:17.269Z,24.92
2022-09-03T09:27:17.304Z,24.93
2022-09-03T09:28:17.189Z,24.99
2022-09-03T09:29:17.200Z,24.95
2022-09-03T09:30:17.196Z,24.98
2022-09-03T09:31:20.007Z,25.01
2022-09-03T09:32:17.918Z,24.99
2022-09-03T09:33:17.142Z,24.93
2022-09-03T09:34:17.141Z,24.93
2022-09-03T09:35:17.125Z,24.85
2022-09-03T09:36:17.098Z,24.92
2022-09-03T09:37:17.056Z,24.85
2022-09-03T09:38:17.051Z,24.85
2022-09-03T09:39:17.124Z,24.84
2022-09-03T09:40:17.044Z,24.88
2022-09-03T09:41:17.020Z,24.96
2022-09-03T09:42:16.982Z,24.88
2022-09-03T09:43:17.032Z,24.91
2022-09-03T09:44:16.940Z,25.03
2022-09-03T09:45:16.928Z,25.01
2022-09-03T09:46:16.958Z,25.11
2022-09-03T09:47:16.910Z,25.13
2022-09-03T09:48:16.886Z,25.23
2022-09-03T09:49:19.381Z,25.28
2022-09-03T09:50:25.011Z,25.36
2022-09-03T09:51:16.831Z,25.41
2022-09-03T09:52:16.844Z,25.46
2022-09-03T09:53:16.789Z,25.43
2022-09-03T09:54:16.801Z,25.51
2022-09-03T09:55:16.757Z,25.47
2022-09-03T09:56:16.764Z,25.50
2022-09-03T09:57:16.781Z,25.41
2022-09-03T09:58:17.387Z,25.46
2022-09-03T09:59:16.712Z,25.32
2022-09-03T10:00:16.820Z,25.33
2022-09-03T10:01:16.720Z,25.32
2022-09-03T10:02:21.967Z,25.31
2022-09-03T10:03:16.737Z,25.23
2022-09-03T10:04:16.617Z,25.22
2022-09-03T10:05:16.608Z,25.23
2022-09-03T10:06:16.626Z,25.25
2022-09-03T10:07:17.401Z,25.33
2022-09-03T10:08:16.621Z,25.36
2022-09-03T10:09:16.545Z,25.48
2022-09-03T10:10:16.623Z,25.58
2022-09-03T10:11:16.543Z,25.62
2022-09-03T10:12:16.491Z,25.68
2022-09-03T10:13:16.471Z,25.88
2022-09-03T10:14:16.486Z,25.91
2022-09-03T10:15:16.482Z,26.03
2022-09-03T10:16:17.466Z,26.07
2022-09-03T10:17:16.473Z,26.06
2022-09-03T10:18:16.420Z,26.06
2022-09-03T10:19:16.410Z,26.06
2022-09-03T10:20:16.405Z,25.99
2022-09-03T10:21:16.931Z,25.85
2022-09-03T10:22:16.339Z,25.87
2022-09-03T10:23:16.332Z,25.80
2022-09-03T10:24:16.329Z,25.68
2022-09-03T10:25:16.294Z,25.70
2022-09-03T10:26:16.297Z,25.65
2022-09-03T10:27:16.257Z,25.59
2022-09-03T10:28:16.267Z,25.62
2022-09-03T10:29:16.230Z,25.51
2022-09-03T10:30:16.888Z,25.44
2022-09-03T10:31:16.309Z,25.48
2022-09-03T10:32:16.188Z,25.38
2022-09-03T10:33:16.197Z,25.35
2022-09-03T10:34:16.193Z,25.29
2022-09-03T10:35:16.134Z,25.26
2022-09-03T10:36:16.136Z,25.23
2022-09-03T10:37:16.119Z,25.14
2022-09-03T10:38:16.184Z,25.16
2022-09-03T10:39:16.099Z,25.01
2022-09-03T10:40:16.230Z,25.04
2022-09-03T10:41:16.043Z,24.86
2022-09-03T10:42:16.050Z,24.81
2022-09-03T10:43:16.062Z,24.84
2022-09-03T10:44:16.030Z,24.73
2022-09-03T10:45:16.075Z,24.66
2022-09-03T10:46:18.490Z,24.60
2022-09-03T10:47:15.977Z,24.48
2022-09-03T10:48:15.959Z,24.51
2022-09-03T10:49:15.917Z,24.45
2022-09-03T10:50:15.902Z,24.40
2022-09-03T10:51:15.906Z,24.42
2022-09-03T10:52:15.894Z,24.42
2022-09-03T10:53:15.864Z,24.40
2022-09-03T10:54:15.822Z,24.36
2022-09-03T10:55:15.831Z,24.43
2022-09-03T10:56:15.826Z,24.38
2022-09-03T10:57:15.785Z,24.39
2022-09-03T10:58:15.755Z,24.43
2022-09-03T10:59:15.758Z,24.42
2022-09-03T11:00:15.751Z,24.47
2022-09-03T11:01:15.733Z,24.42
2022-09-03T11:02:15.798Z,24.47
2022-09-03T11:03:15.683Z,24.36
2022-09-03T11:04:15.690Z,24.42
2022-09-03T11:05:15.722Z,24.36
2022-09-03T11:06:15.645Z,24.43
2022-09-03T11:07:15.606Z,24.45
2022-09-03T11:08:15.721Z,24.48
2022-09-03T11:09:15.636Z,24.51
2022-09-03T11:10:15.574Z,24.43
2022-09-03T11:11:15.586Z,24.50
2022-09-03T11:12:15.537Z,24.30
2022-09-03T11:13:15.544Z,24.42
2022-09-03T11:14:15.495Z,24.30
2022-09-03T11:15:15.507Z,24.28
2022-09-03T11:16:15.523Z,24.20
2022-09-03T11:17:15.465Z,24.20
2022-09-03T11:18:15.566Z,24.10
2022-09-03T11:19:15.464Z,24.21
2022-09-03T11:20:15.395Z,24.17
2022-09-03T11:21:15.392Z,24.11
2022-09-03T11:22:15.403Z,24.18
2022-09-03T11:23:15.357Z,24.16
2022-09-03T11:24:15.370Z,24.21
2022-09-03T11:25:15.318Z,24.29
2022-09-03T11:26:15.324Z,24.33
2022-09-03T11:27:15.276Z,24.32
2022-09-03T11:28:15.392Z,24.39
2022-09-03T11:29:15.243Z,24.47
2022-09-03T11:30:15.251Z,24.42
2022-09-03T11:31:15.325Z,24.47
2022-09-03T11:32:15.207Z,24.53
2022-09-03T11:33:15.250Z,24.63
2022-09-03T11:34:23.389Z,24.60
2022-09-03T11:35:15.183Z,24.61
2022-09-03T11:36:15.209Z,24.63
2022-09-03T11:37:15.148Z,24.65
2022-09-03T11:38:15.101Z,24.66
2022-09-03T11:39:15.104Z,24.54
2022-09-03T11:40:15.115Z,24.54
2022-09-03T11:41:15.107Z,24.47
2022-09-03T11:42:15.034Z,24.43
2022-09-03T11:43:15.035Z,24.38
2022-09-03T11:44:15.039Z,24.26
2022-09-03T11:45:15.958Z,24.29
2022-09-03T11:46:15.068Z,24.35
2022-09-03T11:47:14.958Z,24.32
2022-09-03T11:48:14.967Z,24.39
2022-09-03T11:49:14.963Z,24.42
2022-09-03T11:50:14.950Z,24.43
2022-09-03T11:51:14.882Z,24.36
2022-09-03T11:52:14.888Z,24.30
2022-09-03T11:53:14.898Z,24.32
2022-09-03T11:54:14.846Z,24.35
2022-09-03T11:55:14.832Z,24.32
2022-09-03T11:56:14.811Z,24.39
2022-09-03T11:57:14.822Z,24.45
2022-09-03T11:58:14.775Z,24.43
2022-09-03T11:59:14.780Z,24.40
2022-09-03T12:00:14.743Z,24.45
2022-09-03T12:01:16.039Z,24.51
2022-09-03T12:02:14.738Z,24.45
2022-09-03T12:03:15.460Z,24.51
2022-09-03T12:04:14.783Z,24.45
2022-09-03T12:05:14.668Z,24.51
2022-09-03T12:06:14.658Z,24.45
2022-09-03T12:07:14.650Z,24.48
2022-09-03T12:08:14.624Z,24.50
2022-09-03T12:09:14.597Z,24.47
2022-09-03T12:10:14.601Z,24.57
2022-09-03T12:11:14.607Z,24.53
2022-09-03T12:12:15.437Z,24.50
2022-09-03T12:13:14.565Z,24.50
2022-09-03T12:14:14.586Z,24.60
2022-09-03T12:15:14.503Z,24.53
2022-09-03T12:16:14.585Z,24.57
2022-09-03T12:17:14.524Z,24.61
2022-09-03T12:18:14.457Z,24.66
2022-09-03T12:19:14.458Z,24.73
2022-09-03T12:20:14.447Z,24.66
2022-09-03T12:21:14.426Z,24.66
2022-09-03T12:22:14.384Z,24.65
2022-09-03T12:23:14.386Z,24.65
2022-09-03T12:24:14.378Z,24.70
2022-09-03T12:25:14.345Z,24.76
2022-09-03T12:26:14.360Z,24.78
2022-09-03T12:27:14.304Z,24.76
2022-09-03T12:28:14.311Z,24.77
2022-09-03T12:29:14.977Z,24.70
2022-09-03T12:30:14.274Z,24.78
2022-09-03T12:31:14.928Z,24.74
2022-09-03T12:32:14.238Z,24.77
2022-09-03T12:33:14.213Z,24.80
2022-09-03T12:34:14.255Z,24.77
2022-09-03T12:35:58.189Z,24.84
2022-09-03T12:36:14.167Z,24.86
2022-09-03T12:37:14.146Z,24.91
2022-09-03T12:38:18.571Z,24.85
2022-09-03T12:39:14.176Z,24.81
2022-09-03T12:40:14.101Z,24.92
2022-09-03T12:41:26.766Z,24.81
2022-09-03T12:42:14.131Z,24.85
2022-09-03T12:44:14.020Z,24.85
2022-09-03T12:45:14.027Z,25.01
2022-09-03T12:46:14.087Z,24.98
2022-09-03T12:48:14.125Z,25.01
2022-09-03T12:49:30.495Z,25.07
2022-09-03T12:50:13.956Z,25.08
2022-09-03T12:52:13.894Z,25.10
2022-09-03T12:53:13.875Z,25.08
2022-09-03T12:54:14.467Z,25.11
2022-09-03T12:55:13.874Z,25.14